sensor_id;sensor_type;location;lat;lon;timestamp;pressure;altitude;pressure_sealevel;temperature;humidity
80640;BME280;69992;60.170;24.692;2024-02-15T00:00:41;102128.83;;;-5.98;31.89
80640;BME280;69992;60.170;24.692;2024-02-15T00:03:07;102128.41;;;-3.83;31.78
80640;BME280;69992;60.170;24.692;2024-02-15T00:05:32;102133.09;;;-3.87;31.81
80640;BME280;69992;60.170;24.692;2024-02-15T00:07:57;102134.23;;;-3.90;31.83
80640;BME280;69992;60.170;24.692;2024-02-15T00:10:23;102134.17;;;-5.89;31.82
80640;BME280;69992;60.170;24.692;2024-02-15T00:12:48;102133.31;;;-3.99;31.85
80640;BME280;69992;60.170;24.692;2024-02-15T00:15:14;102131.88;;;-4.05;31.91
80640;BME280;69992;60.170;24.692;2024-02-15T00:17:40;102131.99;;;-4.09;31.95
80640;BME280;69992;60.170;24.692;2024-02-15T00:20:06;102128.69;;;-5.98;31.93
80640;BME280;69992;60.170;24.692;2024-02-15T00:22:31;102132.91;;;-3.98;31.92
80640;BME280;69992;60.170;24.692;2024-02-15T00:24:57;102134.54;;;-4.00;31.87
80640;BME280;69992;60.170;24.692;2024-02-15T00:27:22;102135.34;;;-6.14;31.91
80640;BME280;69992;60.170;24.692;2024-02-15T00:29:50;102135.57;;;-4.22;31.93
80640;BME280;69992;60.170;24.692;2024-02-15T00:32:13;102136.87;;;-4.30;31.99
80640;BME280;69992;60.170;24.692;2024-02-15T00:34:38;102140.19;;;-4.28;32.01
80640;BME280;69992;60.170;24.692;2024-02-15T00:37:04;102141.59;;;-5.12;31.96
80640;BME280;69992;60.170;24.692;2024-02-15T00:39:30;102135.91;;;-4.10;31.95
80640;BME280;69992;60.170;24.692;2024-02-15T00:41:55;102136.29;;;-4.06;31.93
80640;BME280;69992;60.170;24.692;2024-02-15T00:44:21;102139.29;;;-6.01;31.92
80640;BME280;69992;60.170;24.692;2024-02-15T00:46:46;102139.70;;;-5.02;31.92
80640;BME280;69992;60.170;24.692;2024-02-15T00:49:11;102141.63;;;-6.06;31.91
80640;BME280;69992;60.170;24.692;2024-02-15T00:51:37;102142.10;;;-4.10;31.92
80640;BME280;69992;60.170;24.692;2024-02-15T00:54:03;102141.72;;;-5.07;31.94
80640;BME280;69992;60.170;24.692;2024-02-15T00:56:28;102142.95;;;-4.08;31.96
80640;BME280;69992;60.170;24.692;2024-02-15T00:58:53;102141.26;;;-4.02;31.94
80640;BME280;69992;60.170;24.692;2024-02-15T01:01:19;102145.09;;;-5.94;31.94
80640;BME280;69992;60.170;24.692;2024-02-15T01:03:45;102146.17;;;-4.94;31.95
80640;BME280;69992;60.170;24.692;2024-02-15T01:06:10;102147.17;;;-5.89;31.94
80640;BME280;69992;60.170;24.692;2024-02-15T01:08:36;102148.36;;;-4.03;31.91
80640;BME280;69992;60.170;24.692;2024-02-15T01:11:01;102150.26;;;-5.09;31.93
80640;BME280;69992;60.170;24.692;2024-02-15T01:13:26;102147.99;;;-4.07;31.92
80640;BME280;69992;60.170;24.692;2024-02-15T01:15:52;102145.15;;;-5.05;31.95
80640;BME280;69992;60.170;24.692;2024-02-15T01:18:18;102144.31;;;-6.01;31.95
80640;BME280;69992;60.170;24.692;2024-02-15T01:20:43;102141.84;;;-3.98;31.92
80640;BME280;69992;60.170;24.692;2024-02-15T01:23:08;102143.33;;;-3.98;31.93
80640;BME280;69992;60.170;24.692;2024-02-15T01:25:33;102141.07;;;-3.96;31.92
80640;BME280;69992;60.170;24.692;2024-02-15T01:27:59;102142.93;;;-4.90;31.91
80640;BME280;69992;60.170;24.692;2024-02-15T01:30:27;102144.57;;;-5.88;31.91
80640;BME280;69992;60.170;24.692;2024-02-15T01:32:49;102146.89;;;-3.92;31.92
80640;BME280;69992;60.170;24.692;2024-02-15T01:35:15;102145.59;;;-4.91;31.92
80640;BME280;69992;60.170;24.692;2024-02-15T01:37:41;102145.98;;;-5.90;31.94
80640;BME280;69992;60.170;24.692;2024-02-15T01:40:07;102150.44;;;-3.91;31.93
80640;BME280;69992;60.170;24.692;2024-02-15T01:42:32;102150.18;;;-3.91;31.91
80640;BME280;69992;60.170;24.692;2024-02-15T01:44:57;102156.45;;;-4.99;31.92
80640;BME280;69992;60.170;24.692;2024-02-15T01:47:22;102155.02;;;-6.01;31.93
80640;BME280;69992;60.170;24.692;2024-02-15T01:49:48;102153.55;;;-4.12;31.96
80640;BME280;69992;60.170;24.692;2024-02-15T01:52:14;102154.59;;;-6.05;31.96
80640;BME280;69992;60.170;24.692;2024-02-15T01:54:39;102155.10;;;-6.07;31.95
80640;BME280;69992;60.170;24.692;2024-02-15T01:57:04;102154.38;;;-4.10;31.96
80640;BME280;69992;60.170;24.692;2024-02-15T01:59:31;102150.34;;;-4.07;31.95
80640;BME280;69992;60.170;24.692;2024-02-15T02:01:56;102153.63;;;-4.06;31.95
80640;BME280;69992;60.170;24.692;2024-02-15T02:04:21;102153.97;;;-4.06;31.96
80640;BME280;69992;60.170;24.692;2024-02-15T02:06:50;102152.53;;;-4.03;31.95
80640;BME280;69992;60.170;24.692;2024-02-15T02:09:13;102152.20;;;-4.01;31.95
80640;BME280;69992;60.170;24.692;2024-02-15T02:11:38;102153.25;;;-4.96;31.95
80640;BME280;69992;60.170;24.692;2024-02-15T02:14:04;102152.50;;;-4.94;31.93
80640;BME280;69992;60.170;24.692;2024-02-15T02:16:30;102152.93;;;-4.96;31.93
80640;BME280;69992;60.170;24.692;2024-02-15T02:18:58;102154.05;;;-4.92;31.92
80640;BME280;69992;60.170;24.692;2024-02-15T02:21:20;102150.76;;;-5.88;31.92
80640;BME280;69992;60.170;24.692;2024-02-15T02:23:45;102147.68;;;-3.91;31.90
80640;BME280;69992;60.170;24.692;2024-02-15T02:26:11;102153.59;;;-4.87;31.89
80640;BME280;69992;60.170;24.692;2024-02-15T02:28:35;102150.13;;;-4.89;31.90
80640;BME280;69992;60.170;24.692;2024-02-15T02:31:01;102148.26;;;-3.93;31.91
80640;BME280;69992;60.170;24.692;2024-02-15T02:33:26;102155.77;;;-5.89;31.91
80640;BME280;69992;60.170;24.692;2024-02-15T02:35:52;102154.88;;;-4.90;31.91
80640;BME280;69992;60.170;24.692;2024-02-15T02:38:18;102154.41;;;-5.89;31.94
80640;BME280;69992;60.170;24.692;2024-02-15T02:40:42;102153.62;;;-3.86;31.93
80640;BME280;69992;60.170;24.692;2024-02-15T02:43:08;102159.01;;;-3.87;31.92
80640;BME280;69992;60.170;24.692;2024-02-15T02:45:37;102163.64;;;-3.86;31.93
80640;BME280;69992;60.170;24.692;2024-02-15T02:47:58;102165.40;;;-5.78;31.92
80640;BME280;69992;60.170;24.692;2024-02-15T02:50:24;102167.19;;;-3.86;31.93
80640;BME280;69992;60.170;24.692;2024-02-15T02:52:50;102168.03;;;-4.88;31.94
80640;BME280;69992;60.170;24.692;2024-02-15T02:55:16;102169.50;;;-3.88;31.93
80640;BME280;69992;60.170;24.692;2024-02-15T02:57:40;102166.13;;;-3.88;31.96
80640;BME280;69992;60.170;24.692;2024-02-15T03:00:09;102168.09;;;-4.83;31.94
80640;BME280;69992;60.170;24.692;2024-02-15T03:02:31;102169.37;;;-3.89;31.97
80640;BME280;69992;60.170;24.692;2024-02-15T03:04:57;102168.00;;;-4.85;31.97
80640;BME280;69992;60.170;24.692;2024-02-15T03:07:22;102168.91;;;-4.90;32.02
80640;BME280;69992;60.170;24.692;2024-02-15T03:09:47;102169.47;;;-3.88;32.01
80640;BME280;69992;60.170;24.692;2024-02-15T03:12:13;102173.01;;;-3.82;32.00
80640;BME280;69992;60.170;24.692;2024-02-15T03:14:38;102173.42;;;-5.72;31.98
80640;BME280;69992;60.170;24.692;2024-02-15T03:17:04;102175.94;;;-3.75;31.98
80640;BME280;69992;60.170;24.692;2024-02-15T03:19:29;102177.47;;;-5.66;31.97
80640;BME280;69992;60.170;24.692;2024-02-15T03:21:55;102179.39;;;-3.71;31.97
80640;BME280;69992;60.170;24.692;2024-02-15T03:24:21;102180.10;;;-4.72;31.97
80640;BME280;69992;60.170;24.692;2024-02-15T03:26:46;102181.52;;;-4.73;31.98
80640;BME280;69992;60.170;24.692;2024-02-15T03:29:12;102180.36;;;-5.67;31.96
80640;BME280;69992;60.170;24.692;2024-02-15T03:31:37;102181.66;;;-4.68;31.97
80640;BME280;69992;60.170;24.692;2024-02-15T03:34:03;102183.68;;;-5.63;31.97
80640;BME280;69992;60.170;24.692;2024-02-15T03:36:29;102187.65;;;-5.62;31.96
80640;BME280;69992;60.170;24.692;2024-02-15T03:38:55;102187.73;;;-5.58;31.94
80640;BME280;69992;60.170;24.692;2024-02-15T03:41:20;102188.40;;;-5.60;31.97
80640;BME280;69992;60.170;24.692;2024-02-15T03:43:45;102186.61;;;-4.65;31.99
80640;BME280;69992;60.170;24.692;2024-02-15T03:46:11;102184.55;;;-3.68;32.01
80640;BME280;69992;60.170;24.692;2024-02-15T03:48:37;102183.55;;;-5.61;32.00
80640;BME280;69992;60.170;24.692;2024-02-15T03:51:03;102183.63;;;-3.64;32.00
80640;BME280;69992;60.170;24.692;2024-02-15T03:53:28;102185.49;;;-3.63;31.99
80640;BME280;69992;60.170;24.692;2024-02-15T03:55:54;102187.96;;;-4.60;31.99
80640;BME280;69992;60.170;24.692;2024-02-15T03:58:19;102186.96;;;-6.55;31.99
80640;BME280;69992;60.170;24.692;2024-02-15T04:00:45;102185.72;;;-3.63;31.99
80640;BME280;69992;60.170;24.692;2024-02-15T04:03:10;102185.63;;;-3.62;31.98
80640;BME280;69992;60.170;24.692;2024-02-15T04:05:35;102186.93;;;-4.64;32.01
80640;BME280;69992;60.170;24.692;2024-02-15T04:08:05;102183.84;;;-4.73;32.03
80640;BME280;69992;60.170;24.692;2024-02-15T04:10:27;102181.68;;;-5.66;32.01
80640;BME280;69992;60.170;24.692;2024-02-15T04:12:52;102178.56;;;-3.70;32.01
80640;BME280;69992;60.170;24.692;2024-02-15T04:15:17;102176.02;;;-5.67;32.01
80640;BME280;69992;60.170;24.692;2024-02-15T04:17:43;102176.07;;;-3.73;32.01
80640;BME280;69992;60.170;24.692;2024-02-15T04:20:10;102177.56;;;-5.73;32.01
80640;BME280;69992;60.170;24.692;2024-02-15T04:22:34;102177.19;;;-3.76;32.02
80640;BME280;69992;60.170;24.692;2024-02-15T04:25:00;102177.86;;;-4.73;32.02
80640;BME280;69992;60.170;24.692;2024-02-15T04:27:25;102173.24;;;-5.68;32.01
80640;BME280;69992;60.170;24.692;2024-02-15T04:29:51;102169.09;;;-3.69;31.98
80640;BME280;69992;60.170;24.692;2024-02-15T04:32:20;102166.38;;;-5.70;32.00
80640;BME280;69992;60.170;24.692;2024-02-15T04:34:41;102162.18;;;-5.69;32.01
80640;BME280;69992;60.170;24.692;2024-02-15T04:37:07;102164.85;;;-5.68;31.98
80640;BME280;69992;60.170;24.692;2024-02-15T04:39:32;102171.21;;;-4.74;31.99
80640;BME280;69992;60.170;24.692;2024-02-15T04:41:57;102168.34;;;-4.82;31.98
80640;BME280;69992;60.170;24.692;2024-02-15T04:44:23;102172.17;;;-4.85;32.00
80640;BME280;69992;60.170;24.692;2024-02-15T04:46:48;102170.28;;;-3.88;32.00
80640;BME280;69992;60.170;24.692;2024-02-15T04:49:14;102176.16;;;-3.90;32.02
80640;BME280;69992;60.170;24.692;2024-02-15T04:51:40;102172.59;;;-3.95;32.03
80640;BME280;69992;60.170;24.692;2024-02-15T04:54:05;102176.60;;;-4.98;32.06
80640;BME280;69992;60.170;24.692;2024-02-15T04:56:30;102175.00;;;-4.06;32.07
80640;BME280;69992;60.170;24.692;2024-02-15T04:58:56;102179.26;;;-5.06;32.09
80640;BME280;69992;60.170;24.692;2024-02-15T05:01:22;102181.26;;;-5.98;32.07
80640;BME280;69992;60.170;24.692;2024-02-15T05:03:47;102187.48;;;-3.96;32.05
80640;BME280;69992;60.170;24.692;2024-02-15T05:06:12;102188.86;;;-3.96;32.02
80640;BME280;69992;60.170;24.692;2024-02-15T05:08:38;102189.32;;;-5.90;32.02
80640;BME280;69992;60.170;24.692;2024-02-15T05:11:03;102201.94;;;-4.92;32.01
80640;BME280;69992;60.170;24.692;2024-02-15T05:13:29;102203.83;;;-4.07;32.05
80640;BME280;69992;60.170;24.692;2024-02-15T05:15:54;102201.84;;;-4.19;32.09
80640;BME280;69992;60.170;24.692;2024-02-15T05:18:20;102200.60;;;-5.24;32.09
80640;BME280;69992;60.170;24.692;2024-02-15T05:20:45;102202.92;;;-4.31;32.12
80640;BME280;69992;60.170;24.692;2024-02-15T05:23:11;102206.42;;;-4.29;32.10
80640;BME280;69992;60.170;24.692;2024-02-15T05:25:36;102204.57;;;-5.31;32.09
80640;BME280;69992;60.170;24.692;2024-02-15T05:28:02;102205.82;;;-4.34;32.10
80640;BME280;69992;60.170;24.692;2024-02-15T05:30:31;102204.56;;;-5.31;32.09
80640;BME280;69992;60.170;24.692;2024-02-15T05:32:53;102203.66;;;-4.24;32.07
80640;BME280;69992;60.170;24.692;2024-02-15T05:35:19;102204.17;;;-6.18;32.08
80640;BME280;69992;60.170;24.692;2024-02-15T05:37:44;102202.10;;;-4.18;32.06
80640;BME280;69992;60.170;24.692;2024-02-15T05:40:11;102205.52;;;-5.12;32.06
80640;BME280;69992;60.170;24.692;2024-02-15T05:42:35;102202.07;;;-4.12;32.04
80640;BME280;69992;60.170;24.692;2024-02-15T05:47:27;102200.20;;;-4.19;32.05
80640;BME280;69992;60.170;24.692;2024-02-15T05:49:52;102201.08;;;-4.27;32.08
80640;BME280;69992;60.170;24.692;2024-02-15T05:52:17;102199.65;;;-4.38;32.10
80640;BME280;69992;60.170;24.692;2024-02-15T05:54:43;102198.71;;;-4.48;32.14
80640;BME280;69992;60.170;24.692;2024-02-15T05:57:08;102202.07;;;-4.54;32.17
80640;BME280;69992;60.170;24.692;2024-02-15T05:59:34;102204.20;;;-4.45;32.15
80640;BME280;69992;60.170;24.692;2024-02-15T06:02:00;102202.73;;;-4.41;32.14
80640;BME280;69992;60.170;24.692;2024-02-15T06:04:25;102206.02;;;-5.36;32.13
80640;BME280;69992;60.170;24.692;2024-02-15T06:06:51;102209.13;;;-6.30;32.11
80640;BME280;69992;60.170;24.692;2024-02-15T06:09:16;102208.12;;;-6.23;32.10
80640;BME280;69992;60.170;24.692;2024-02-15T06:11:41;102206.57;;;-4.18;32.09
80640;BME280;69992;60.170;24.692;2024-02-15T06:14:07;102205.50;;;-4.11;32.06
80640;BME280;69992;60.170;24.692;2024-02-15T06:16:32;102204.44;;;-6.15;32.06
80640;BME280;69992;60.170;24.692;2024-02-15T06:18:58;102206.53;;;-4.04;31.99
80640;BME280;69992;60.170;24.692;2024-02-15T06:21:23;102205.87;;;-6.02;32.02
80640;BME280;69992;60.170;24.692;2024-02-15T06:23:49;102206.92;;;-4.07;32.04
80640;BME280;69992;60.170;24.692;2024-02-15T06:26:15;102209.73;;;-5.00;32.02
80640;BME280;69992;60.170;24.692;2024-02-15T06:28:43;102213.77;;;-4.04;32.04
80640;BME280;69992;60.170;24.692;2024-02-15T06:31:06;102216.95;;;-5.02;32.03
80640;BME280;69992;60.170;24.692;2024-02-15T06:33:30;102214.79;;;-5.00;32.02
80640;BME280;69992;60.170;24.692;2024-02-15T06:35:55;102216.66;;;-4.03;32.04
80640;BME280;69992;60.170;24.692;2024-02-15T06:38:21;102217.77;;;-5.94;32.03
80640;BME280;69992;60.170;24.692;2024-02-15T06:40:50;102218.72;;;-3.93;32.02
80640;BME280;69992;60.170;24.692;2024-02-15T06:43:12;102219.57;;;-3.96;32.03
80640;BME280;69992;60.170;24.692;2024-02-15T06:45:39;102223.31;;;-3.90;32.05
80640;BME280;69992;60.170;24.692;2024-02-15T06:48:03;102225.47;;;-3.84;32.03
80640;BME280;69992;60.170;24.692;2024-02-15T06:50:28;102227.53;;;-4.85;32.07
80640;BME280;69992;60.170;24.692;2024-02-15T06:52:54;102229.72;;;-4.75;32.03
80640;BME280;69992;60.170;24.692;2024-02-15T06:55:22;102228.83;;;-3.73;32.04
80640;BME280;69992;60.170;24.692;2024-02-15T06:57:45;102227.87;;;-5.70;32.10
80640;BME280;69992;60.170;24.692;2024-02-15T07:00:11;102229.06;;;-3.71;32.12
80640;BME280;69992;60.170;24.692;2024-02-15T07:02:37;102228.28;;;-3.66;32.12
80640;BME280;69992;60.170;24.692;2024-02-15T07:05:02;102227.22;;;-5.68;32.12
80640;BME280;69992;60.170;24.692;2024-02-15T07:07:28;102226.60;;;-3.82;32.14
80640;BME280;69992;60.170;24.692;2024-02-15T07:09:56;102230.92;;;-3.87;32.18
80640;BME280;69992;60.170;24.692;2024-02-15T07:12:19;102232.06;;;-3.88;32.19
80640;BME280;69992;60.170;24.692;2024-02-15T07:14:45;102238.05;;;-3.87;32.18
80640;BME280;69992;60.170;24.692;2024-02-15T07:17:09;102243.52;;;-4.87;32.21
80640;BME280;69992;60.170;24.692;2024-02-15T07:19:48;102248.54;;;-3.87;32.21
80640;BME280;69992;60.170;24.692;2024-02-15T07:22:04;102250.31;;;-3.88;32.21
80640;BME280;69992;60.170;24.692;2024-02-15T07:24:26;102250.31;;;-3.94;32.22
80640;BME280;69992;60.170;24.692;2024-02-15T07:26:52;102252.11;;;-5.95;32.24
80640;BME280;69992;60.170;24.692;2024-02-15T07:29:17;102253.65;;;-4.97;32.24
80640;BME280;69992;60.170;24.692;2024-02-15T07:31:43;102249.88;;;-4.03;32.25
80640;BME280;69992;60.170;24.692;2024-02-15T07:34:09;102247.43;;;-5.11;32.26
80640;BME280;69992;60.170;24.692;2024-02-15T07:36:33;102252.22;;;-4.16;32.30
80640;BME280;69992;60.170;24.692;2024-02-15T07:38:59;102250.92;;;-4.19;32.34
80640;BME280;69992;60.170;24.692;2024-02-15T07:41:25;102252.57;;;-4.09;32.33
80640;BME280;69992;60.170;24.692;2024-02-15T07:43:51;102248.71;;;-4.03;32.27
80640;BME280;69992;60.170;24.692;2024-02-15T07:46:19;102248.62;;;-4.03;32.27
80640;BME280;69992;60.170;24.692;2024-02-15T07:48:42;102251.10;;;-3.96;32.24
80640;BME280;69992;60.170;24.692;2024-02-15T07:51:07;102250.17;;;-4.92;32.23
80640;BME280;69992;60.170;24.692;2024-02-15T07:53:33;102258.01;;;-3.89;32.23
80640;BME280;69992;60.170;24.692;2024-02-15T07:55:59;102262.48;;;-3.78;32.21
80640;BME280;69992;60.170;24.692;2024-02-15T07:58:28;102265.93;;;-4.73;32.23
80640;BME280;69992;60.170;24.692;2024-02-15T08:00:50;102262.83;;;-4.69;32.20
80640;BME280;69992;60.170;24.692;2024-02-15T08:03:16;102263.82;;;-3.74;32.21
80640;BME280;69992;60.170;24.692;2024-02-15T08:05:41;102262.55;;;-5.73;32.24
80640;BME280;69992;60.170;24.692;2024-02-15T08:08:06;102259.96;;;-3.82;32.27
80640;BME280;69992;60.170;24.692;2024-02-15T08:10:31;102264.58;;;-3.68;32.26
80640;BME280;69992;60.170;24.692;2024-02-15T08:12:57;102265.61;;;-4.50;32.22
80640;BME280;69992;60.170;24.692;2024-02-15T08:15:22;102269.11;;;-3.47;32.23
80640;BME280;69992;60.170;24.692;2024-02-15T08:17:47;102269.60;;;-3.42;32.22
80640;BME280;69992;60.170;24.692;2024-02-15T08:20:14;102274.33;;;-3.38;32.21
80640;BME280;69992;60.170;24.692;2024-02-15T08:22:39;102272.88;;;-4.34;32.21
80640;BME280;69992;60.170;24.692;2024-02-15T08:25:06;102271.30;;;-5.30;32.18
80640;BME280;69992;60.170;24.692;2024-02-15T08:27:30;102271.94;;;-5.30;32.20
80640;BME280;69992;60.170;24.692;2024-02-15T08:29:55;102267.05;;;-5.22;32.19
80640;BME280;69992;60.170;24.692;2024-02-15T08:32:24;102267.07;;;-5.17;32.20
80640;BME280;69992;60.170;24.692;2024-02-15T08:34:46;102265.28;;;-5.14;32.21
80640;BME280;69992;60.170;24.692;2024-02-15T08:37:11;102259.69;;;-5.09;32.20
80640;BME280;69992;60.170;24.692;2024-02-15T08:39:46;102259.23;;;-5.09;32.22
80640;BME280;69992;60.170;24.692;2024-02-15T08:42:02;102259.80;;;-3.13;32.24
80640;BME280;69992;60.170;24.692;2024-02-15T08:44:27;102264.79;;;-4.12;32.24
80640;BME280;69992;60.170;24.692;2024-02-15T08:46:53;102263.56;;;-3.14;32.26
80640;BME280;69992;60.170;24.692;2024-02-15T08:49:18;102262.68;;;-5.10;32.28
80640;BME280;69992;60.170;24.692;2024-02-15T08:51:47;102263.95;;;-4.12;32.27
80640;BME280;69992;60.170;24.692;2024-02-15T08:54:10;102269.29;;;-5.18;32.28
80640;BME280;69992;60.170;24.692;2024-02-15T08:56:36;102268.80;;;-3.31;32.33
80640;BME280;69992;60.170;24.692;2024-02-15T08:59:01;102270.27;;;-3.38;32.34
80640;BME280;69992;60.170;24.692;2024-02-15T09:01:26;102273.50;;;-4.49;32.35
80640;BME280;69992;60.170;24.692;2024-02-15T09:03:56;102273.52;;;-3.68;32.38
80640;BME280;69992;60.170;24.692;2024-02-15T09:06:17;102269.13;;;-4.75;32.40
80640;BME280;69992;60.170;24.692;2024-02-15T09:08:43;102263.36;;;-5.78;32.42
80640;BME280;69992;60.170;24.692;2024-02-15T09:11:08;102263.96;;;-3.82;32.42
80640;BME280;69992;60.170;24.692;2024-02-15T09:13:33;102265.99;;;-3.86;32.43
80640;BME280;69992;60.170;24.692;2024-02-15T09:16:02;102261.38;;;-4.84;32.42
80640;BME280;69992;60.170;24.692;2024-02-15T09:18:24;102259.76;;;-5.75;32.42
80640;BME280;69992;60.170;24.692;2024-02-15T09:20:49;102262.14;;;-3.70;32.42
80640;BME280;69992;60.170;24.692;2024-02-15T09:23:16;102264.69;;;-4.60;32.41
80640;BME280;69992;60.170;24.692;2024-02-15T09:25:41;102260.67;;;-5.54;32.40
80640;BME280;69992;60.170;24.692;2024-02-15T09:28:10;102261.42;;;-3.65;32.39
80640;BME280;69992;60.170;24.692;2024-02-15T09:30:32;102269.69;;;-3.69;32.38
80640;BME280;69992;60.170;24.692;2024-02-15T09:32:58;102265.73;;;-3.81;32.40
80640;BME280;69992;60.170;24.692;2024-02-15T09:35:24;102268.96;;;-4.90;32.43
80640;BME280;69992;60.170;24.692;2024-02-15T09:37:50;102270.08;;;-3.89;32.45
80640;BME280;69992;60.170;24.692;2024-02-15T09:40:17;102275.35;;;-3.78;32.41
80640;BME280;69992;60.170;24.692;2024-02-15T09:42:41;102276.84;;;-4.66;32.39
80640;BME280;69992;60.170;24.692;2024-02-15T09:45:07;102278.86;;;-4.56;32.35
80640;BME280;69992;60.170;24.692;2024-02-15T09:47:35;102281.50;;;-5.48;32.37
80640;BME280;69992;60.170;24.692;2024-02-15T09:49:59;102280.98;;;-3.51;32.36
80640;BME280;69992;60.170;24.692;2024-02-15T09:52:23;102278.89;;;-5.45;32.38
80640;BME280;69992;60.170;24.692;2024-02-15T09:54:48;102275.41;;;-4.49;32.38
80640;BME280;69992;60.170;24.692;2024-02-15T09:57:14;102270.81;;;-4.45;32.38
80640;BME280;69992;60.170;24.692;2024-02-15T09:59:40;102271.40;;;-3.51;32.38
80640;BME280;69992;60.170;24.692;2024-02-15T10:02:05;102272.74;;;-3.58;32.40
80640;BME280;69992;60.170;24.692;2024-02-15T10:04:30;102275.14;;;-5.55;32.42
80640;BME280;69992;60.170;24.692;2024-02-15T10:06:55;102277.89;;;-5.57;32.44
80640;BME280;69992;60.170;24.692;2024-02-15T10:09:25;102279.07;;;-3.63;32.46
80640;BME280;69992;60.170;24.692;2024-02-15T10:11:54;102281.84;;;-5.55;32.45
80640;BME280;69992;60.170;24.692;2024-02-15T10:14:12;102281.83;;;-4.45;32.43
80640;BME280;69992;60.170;24.692;2024-02-15T10:16:38;102283.08;;;-3.47;32.40
80640;BME280;69992;60.170;24.692;2024-02-15T10:19:08;102277.67;;;-4.43;32.40
80640;BME280;69992;60.170;24.692;2024-02-15T10:21:28;102275.82;;;-5.35;32.40
80640;BME280;69992;60.170;24.692;2024-02-15T10:24:04;102269.59;;;-4.37;32.42
80640;BME280;69992;60.170;24.692;2024-02-15T10:26:20;102266.61;;;-5.30;32.39
80640;BME280;69992;60.170;24.692;2024-02-15T10:31:10;102263.82;;;-5.72;31.76
80640;BME280;69992;60.170;24.692;2024-02-15T10:33:35;102262.80;;;-3.57;31.51
80640;BME280;69992;60.170;24.692;2024-02-15T10:36:06;102258.40;;;-4.20;31.85
80640;BME280;69992;60.170;24.692;2024-02-15T10:38:26;102255.98;;;-4.46;32.03
80640;BME280;69992;60.170;24.692;2024-02-15T10:41:08;102251.23;;;-4.74;32.15
80640;BME280;69992;60.170;24.692;2024-02-15T10:43:21;102254.58;;;-4.85;32.24
80640;BME280;69992;60.170;24.692;2024-02-15T10:45:44;102255.69;;;-4.88;32.27
80640;BME280;69992;60.170;24.692;2024-02-15T10:48:10;102258.52;;;-3.91;32.32
80640;BME280;69992;60.170;24.692;2024-02-15T10:50:34;102258.32;;;-4.90;32.37
80640;BME280;69992;60.170;24.692;2024-02-15T10:53:00;102254.34;;;-4.90;32.34
80640;BME280;69992;60.170;24.692;2024-02-15T10:55:35;102256.60;;;-4.92;32.37
80640;BME280;69992;60.170;24.692;2024-02-15T10:57:51;102261.41;;;-4.88;32.36
80640;BME280;69992;60.170;24.692;2024-02-15T11:00:20;102255.73;;;-3.03;32.40
80640;BME280;69992;60.170;24.692;2024-02-15T11:02:45;102252.69;;;-4.97;32.41
80640;BME280;69992;60.170;24.692;2024-02-15T11:05:08;102251.58;;;-4.90;32.41
80640;BME280;69992;60.170;24.692;2024-02-15T11:07:32;102253.85;;;-3.94;32.42
80640;BME280;69992;60.170;24.692;2024-02-15T11:09:58;102248.98;;;-4.90;32.42
80640;BME280;69992;60.170;24.692;2024-02-15T11:12:24;102244.64;;;-4.87;32.41
80640;BME280;69992;60.170;24.692;2024-02-15T11:14:49;102244.26;;;-4.86;32.40
80640;BME280;69992;60.170;24.692;2024-02-15T11:19:44;102243.20;;;-4.85;32.38
80640;BME280;69992;60.170;24.692;2024-02-15T11:22:08;102243.63;;;-4.96;32.40
80640;BME280;69992;60.170;24.692;2024-02-15T11:24:31;102243.38;;;-5.04;32.45
80640;BME280;69992;60.170;24.692;2024-02-15T11:26:59;102243.20;;;-4.05;32.44
80640;BME280;69992;60.170;24.692;2024-02-15T11:31:54;102234.57;;;-4.96;32.40
80640;BME280;69992;60.170;24.692;2024-02-15T11:36:37;102236.82;;;-5.05;32.40
80640;BME280;69992;60.170;24.692;2024-02-15T11:41:29;102240.66;;;-5.08;32.42
80640;BME280;69992;60.170;24.692;2024-02-15T11:43:54;102238.43;;;-3.13;32.42
80640;BME280;69992;60.170;24.692;2024-02-15T11:46:20;102235.55;;;-5.20;32.45
80640;BME280;69992;60.170;24.692;2024-02-15T11:48:45;102235.66;;;-5.31;32.48
80640;BME280;69992;60.170;24.692;2024-02-15T11:51:10;102234.92;;;-5.34;32.49
80640;BME280;69992;60.170;24.692;2024-02-15T11:53:36;102232.24;;;-4.34;32.48
80640;BME280;69992;60.170;24.692;2024-02-15T11:56:02;102229.21;;;-5.36;32.49
80640;BME280;69992;60.170;24.692;2024-02-15T11:58:27;102226.42;;;-4.34;32.52
80640;BME280;69992;60.170;24.692;2024-02-15T12:00:58;102221.04;;;-4.33;32.48
80640;BME280;69992;60.170;24.692;2024-02-15T12:03:18;102216.95;;;-5.34;32.48
80640;BME280;69992;60.170;24.692;2024-02-15T12:05:44;102213.88;;;-5.39;32.51
80640;BME280;69992;60.170;24.692;2024-02-15T12:08:12;102217.24;;;-4.44;32.52
80640;BME280;69992;60.170;24.692;2024-02-15T12:10:35;102224.11;;;-4.50;32.56
80640;BME280;69992;60.170;24.692;2024-02-15T12:13:00;102231.18;;;-5.48;32.57
80640;BME280;69992;60.170;24.692;2024-02-15T12:15:25;102238.50;;;-5.45;32.56
80640;BME280;69992;60.170;24.692;2024-02-15T12:17:51;102244.53;;;-3.41;32.54
80640;BME280;69992;60.170;24.692;2024-02-15T12:20:19;102246.67;;;-5.30;32.52
80640;BME280;69992;60.170;24.692;2024-02-15T12:22:44;102247.66;;;-5.22;32.51
80640;BME280;69992;60.170;24.692;2024-02-15T12:25:08;102244.56;;;-4.21;32.50
80640;BME280;69992;60.170;24.692;2024-02-15T12:27:33;102243.32;;;-6.06;32.48
80640;BME280;69992;60.170;24.692;2024-02-15T12:29:59;102237.38;;;-5.11;32.48
80640;BME280;69992;60.170;24.692;2024-02-15T12:32:28;102236.42;;;-5.12;32.49
80640;BME280;69992;60.170;24.692;2024-02-15T12:34:52;102236.58;;;-4.25;32.49
80640;BME280;69992;60.170;24.692;2024-02-15T12:37:18;102235.75;;;-3.40;32.52
80640;BME280;69992;60.170;24.692;2024-02-15T12:39:41;102239.26;;;-5.40;32.53
80640;BME280;69992;60.170;24.692;2024-02-15T12:42:07;102235.50;;;-5.46;32.57
80640;BME280;69992;60.170;24.692;2024-02-15T12:44:31;102230.38;;;-5.49;32.58